Time;durP1;ratioP1;P1;durP2;ratioP2;P2;SDS_P1;SDS_P2;PMS_P1;PMS_P2;Temp;Humidity;BMP_temperature;BMP_pressure;BME280_temperature;BME280_humidity;BME280_pressure;Samples;Min_cycle;Max_cycle;Signal;HPM_P1;HPM_P2
2023/09/08 00:01:33;;;;;;;;;;;21.70;57.00;;;17.91;100.00;95740.09;4992784;28;19914;-47
2023/09/08 00:03:59;;;;;;;;;;;21.70;57.00;;;17.90;100.00;95728.50;4991462;28;20398;-47
2023/09/08 00:06:25;;;;;;;;;;;21.70;57.00;;;17.89;100.00;95736.88;4981174;28;19917;-46
2023/09/08 00:08:50;;;;;;;;;;;21.70;57.20;;;17.88;100.00;95733.41;4991700;28;20310;-47
2023/09/08 00:11:17;;;;;;;;;;;21.70;57.20;;;17.90;100.00;95733.91;4991933;28;19909;-46
2023/09/08 00:13:43;;;;;;;;;;;21.70;57.30;;;17.93;100.00;95740.59;4981372;28;20257;-47
2023/09/08 00:16:09;;;;;;;;;;;21.70;57.30;;;17.92;100.00;95728.19;4991558;28;19916;-47
2023/09/08 00:18:35;;;;;;;;;;;21.70;57.30;;;17.96;100.00;95731.88;5005678;28;19910;-47
2023/09/08 00:21:01;;;;;;;;;;;21.70;57.40;;;17.94;100.00;95734.09;4992606;28;19956;-47
2023/09/08 00:23:28;;;;;;;;;;;21.70;57.50;;;17.91;100.00;95732.78;4991316;28;19909;-50
2023/09/08 00:25:54;;;;;;;;;;;21.70;57.50;;;17.85;100.00;95733.22;4992470;28;20327;-54
2023/09/08 00:28:20;;;;;;;;;;;21.70;57.50;;;17.80;100.00;95737.66;4987075;28;19932;-50
2023/09/08 00:30:45;;;;;;;;;;;21.60;57.50;;;17.76;100.00;95751.97;5003183;28;19909;-52
2023/09/08 00:33:13;;;;;;;;;;;21.60;57.50;;;17.68;100.00;95741.97;4989699;28;19915;-53
2023/09/08 00:35:40;;;;;;;;;;;21.60;57.50;;;17.62;100.00;95745.88;4989972;28;19910;-52
2023/09/08 00:38:05;;;;;;;;;;;21.60;57.60;;;17.57;100.00;95744.88;5004167;28;19972;-52
2023/09/08 00:40:32;;;;;;;;;;;21.50;57.60;;;17.52;100.00;95744.22;4991352;28;19976;-50
2023/09/08 00:42:58;;;;;;;;;;;21.50;57.60;;;17.45;100.00;95752.69;4992349;28;19983;-47
2023/09/08 00:45:26;;;;;;;;;;;21.40;57.60;;;17.40;100.00;95744.75;4983410;28;20392;-49
2023/09/08 00:47:52;;;;;;;;;;;21.40;57.70;;;17.34;100.00;95744.06;4989331;28;20004;-47
2023/09/08 00:50:17;;;;;;;;;;;21.30;57.70;;;17.29;100.00;95744.16;4992441;28;20424;-47
2023/09/08 00:52:43;;;;;;;;;;;21.30;57.70;;;17.26;100.00;95734.00;4992217;28;20335;-47
2023/09/08 00:55:09;;;;;;;;;;;21.30;57.80;;;17.21;100.00;95733.34;4996104;28;19909;-47
2023/09/08 00:57:35;;;;;;;;;;;21.20;57.80;;;17.16;100.00;95736.91;4996399;28;19914;-47
2023/09/08 01:00:05;;;;;;;;;;;21.20;57.90;;;17.11;100.00;95737.03;4993738;28;20332;-46
2023/09/08 01:02:32;;;;;;;;;;;21.10;58.00;;;17.06;100.00;95745.22;4991604;28;19924;-47
2023/09/08 01:05:02;;;;;;;;;;;21.00;58.00;;;17.01;100.00;95740.72;4995091;28;20008;-48
2023/09/08 01:07:31;;;;;;;;;;;21.00;58.10;;;16.96;100.00;95734.66;4993758;28;19909;-47
2023/09/08 01:10:03;;;;;;;;;;;20.90;58.10;;;16.88;100.00;95746.91;4995448;28;19909;-54
2023/09/08 01:12:29;;;;;;;;;;;20.90;58.20;;;16.84;100.00;95740.56;4995942;28;19909;-54
2023/09/08 01:14:55;;;;;;;;;;;20.90;58.30;;;16.79;100.00;95744.13;4994792;28;20002;-49
2023/09/08 01:17:20;;;;;;;;;;;20.80;58.30;;;16.74;100.00;95732.66;4995138;28;19909;-47
2023/09/08 01:19:52;;;;;;;;;;;20.80;58.40;;;16.70;100.00;95729.75;4995940;28;19916;-47
2023/09/08 01:22:22;;;;;;;;;;;20.70;58.50;;;16.68;100.00;95741.94;4995181;28;20386;-46
2023/09/08 01:25:15;;;;;;;;;;;20.70;58.60;;;16.65;100.00;95735.25;4993852;28;19971;-47
2023/09/08 01:27:50;;;;;;;;;;;20.60;58.70;;;16.65;100.00;95740.63;4994803;28;19909;-47
2023/09/08 01:30:18;;;;;;;;;;;20.60;58.80;;;16.65;100.00;95733.34;4994147;28;19913;-48
2023/09/08 01:32:45;;;;;;;;;;;20.60;58.90;;;16.65;100.00;95732.56;4994494;28;19910;-49
2023/09/08 01:35:11;;;;;;;;;;;20.60;59.00;;;16.61;100.00;95728.88;4991819;28;20004;-52
2023/09/08 01:37:48;;;;;;;;;;;20.50;59.00;;;16.62;100.00;95735.84;4984913;28;19913;-49
2023/09/08 01:40:14;;;;;;;;;;;20.50;59.10;;;16.57;100.00;95733.25;4995222;28;20353;-47
2023/09/08 01:42:41;;;;;;;;;;;20.50;59.10;;;16.53;100.00;95727.69;5005707;28;19917;-52
2023/09/08 01:45:08;;;;;;;;;;;20.40;59.00;;;16.48;100.00;95724.28;5014789;28;19913;-52
2023/09/08 01:47:35;;;;;;;;;;;20.40;59.00;;;16.37;100.00;95731.75;5010900;28;19920;-48
2023/09/08 01:50:01;;;;;;;;;;;20.40;59.10;;;16.36;100.00;95728.28;5014849;28;19909;-49
2023/09/08 01:52:27;;;;;;;;;;;20.40;59.10;;;16.29;100.00;95738.59;5008857;28;19935;-47
2023/09/08 01:54:53;;;;;;;;;;;20.30;59.20;;;16.28;100.00;95728.16;5012212;28;19944;-52
2023/09/08 01:57:19;;;;;;;;;;;20.30;59.30;;;16.28;100.00;95728.16;5014929;28;19951;-50
2023/09/08 01:59:45;;;;;;;;;;;20.20;59.30;;;16.21;100.00;95725.88;5002044;28;19963;-47
2023/09/08 02:02:11;;;;;;;;;;;20.20;59.40;;;16.16;100.00;95720.56;5014793;28;20329;-48
2023/09/08 02:04:37;;;;;;;;;;;20.20;59.40;;;16.15;100.00;95727.06;5002377;28;20283;-49
2023/09/08 02:07:04;;;;;;;;;;;20.10;59.50;;;16.13;100.00;95726.53;5007811;23;19921;-48
2023/09/08 02:09:36;;;;;;;;;;;20.10;59.60;;;16.06;100.00;95718.06;5001834;28;19920;-51
2023/09/08 02:12:03;;;;;;;;;;;20.00;59.60;;;16.03;100.00;95727.53;5020715;28;19944;-52
2023/09/08 02:14:30;;;;;;;;;;;20.00;59.70;;;15.99;100.00;95720.34;4996383;28;19909;-48
2023/09/08 02:16:56;;;;;;;;;;;20.00;59.70;;;15.96;100.00;95722.53;5007977;28;19913;-50
2023/09/08 02:19:23;;;;;;;;;;;19.90;59.80;;;15.94;100.00;95715.84;5013326;28;19932;-53
2023/09/08 02:21:49;;;;;;;;;;;19.90;59.90;;;15.91;100.00;95721.81;5013415;28;19913;-52
2023/09/08 02:24:15;;;;;;;;;;;19.90;59.90;;;15.87;100.00;95718.94;5013161;28;20379;-53
2023/09/08 02:26:41;;;;;;;;;;;19.80;60.00;;;15.83;100.00;95717.94;5013223;28;19998;-52
2023/09/08 02:29:07;;;;;;;;;;;19.80;60.00;;;15.79;100.00;95724.97;5012319;28;19920;-48
2023/09/08 02:31:34;;;;;;;;;;;19.80;60.30;;;15.77;100.00;95727.16;5013405;28;19909;-51
2023/09/08 02:34:00;;;;;;;;;;;19.80;60.20;;;15.76;100.00;95722.06;5012346;28;19909;-50
2023/09/08 02:36:26;;;;;;;;;;;19.70;60.20;;;15.75;100.00;95728.53;5011995;28;19913;-50
2023/09/08 02:38:53;;;;;;;;;;;19.70;60.30;;;15.72;100.00;95729.91;5013017;28;20393;-52
2023/09/08 02:41:20;;;;;;;;;;;19.70;60.40;;;15.70;100.00;95729.44;5012438;28;20573;-50
2023/09/08 02:43:46;;;;;;;;;;;19.70;61.20;;;15.66;100.00;95729.16;5012999;28;19909;-51
2023/09/08 02:46:12;;;;;;;;;;;19.60;60.40;;;15.65;100.00;95727.56;5012028;28;19912;-52
2023/09/08 02:48:38;;;;;;;;;;;19.60;60.50;;;15.64;100.00;95739.41;5012657;28;19913;-50
2023/09/08 02:51:04;;;;;;;;;;;19.60;60.60;;;15.63;100.00;95729.75;5012889;28;20359;-48
2023/09/08 02:53:30;;;;;;;;;;;19.60;60.70;;;15.62;100.00;95736.22;5011877;28;19909;-48
2023/09/08 02:55:58;;;;;;;;;;;19.60;60.80;;;15.60;100.00;95745.66;5012994;28;19963;-54
2023/09/08 02:58:24;;;;;;;;;;;19.60;60.80;;;15.54;100.00;95728.81;5011698;28;19913;-50
2023/09/08 03:00:51;;;;;;;;;;;19.50;60.80;;;15.54;100.00;95734.19;5011875;28;19916;-50
2023/09/08 03:03:18;;;;;;;;;;;19.50;60.90;;;15.54;100.00;95739.56;5012784;28;20020;-53
2023/09/08 03:05:44;;;;;;;;;;;19.50;60.90;;;15.56;100.00;95737.38;5011740;28;19948;-50
2023/09/08 03:08:10;;;;;;;;;;;19.50;61.00;;;15.53;100.00;95739.88;5012293;28;19927;-50
2023/09/08 03:10:36;;;;;;;;;;;19.50;61.10;;;15.49;100.00;95728.91;5011679;28;20025;-50
2023/09/08 03:13:06;;;;;;;;;;;19.50;61.10;;;15.55;100.00;95729.63;5012823;28;19909;-50
2023/09/08 03:15:32;;;;;;;;;;;19.50;61.20;;;15.55;100.00;95724.28;5011433;28;19966;-53
2023/09/08 03:17:58;;;;;;;;;;;19.40;61.20;;;15.52;100.00;95731.00;5011769;28;19912;-53
2023/09/08 03:20:26;;;;;;;;;;;19.40;61.30;;;15.49;100.00;95728.91;5012448;28;19916;-51
2023/09/08 03:22:52;;;;;;;;;;;19.40;61.40;;;15.49;100.00;95726.22;5011788;28;20372;-50
2023/09/08 03:25:18;;;;;;;;;;;19.40;61.40;;;15.47;100.00;95726.50;5012075;28;19920;-51
2023/09/08 03:27:44;;;;;;;;;;;19.40;61.40;;;15.43;100.00;95733.56;5012363;28;20071;-53
2023/09/08 03:30:11;;;;;;;;;;;19.40;61.40;;;15.45;100.00;95727.91;5010689;28;20007;-51
2023/09/08 03:32:37;;;;;;;;;;;19.40;61.50;;;15.44;100.00;95727.09;5012213;28;19909;-52
2023/09/08 03:35:07;;;;;;;;;;;19.40;61.50;;;15.42;100.00;95725.81;5011167;28;19936;-53
2023/09/08 03:37:34;;;;;;;;;;;19.30;61.60;;;15.39;100.00;95721.81;5011719;28;19919;-52
2023/09/08 03:40:00;;;;;;;;;;;19.40;61.60;;;15.38;100.00;95722.88;5010643;28;19917;-54
2023/09/08 03:42:26;;;;;;;;;;;19.30;61.60;;;15.34;100.00;95729.13;5011016;28;20345;-50
2023/09/08 03:44:51;;;;;;;;;;;19.40;61.70;;;15.33;100.00;95724.88;4999000;28;19952;-53
2023/09/08 03:47:17;;;;;;;;;;;19.30;61.80;;;15.32;100.00;95721.34;5010920;28;19909;-51
2023/09/08 03:49:43;;;;;;;;;;;19.30;61.80;;;15.35;100.00;95717.31;5011575;28;20386;-50
2023/09/08 03:52:09;;;;;;;;;;;19.30;61.80;;;15.33;100.00;95720.28;5010421;28;19916;-48
2023/09/08 03:54:35;;;;;;;;;;;19.30;61.90;;;15.28;100.00;95718.47;5010266;28;20000;-49
2023/09/08 03:57:00;;;;;;;;;;;19.30;61.90;;;15.24;100.00;95722.03;5002809;28;19917;-53
2023/09/08 03:59:26;;;;;;;;;;;19.20;61.90;;;15.18;100.00;95721.31;5004234;28;19909;-48
2023/09/08 04:01:52;;;;;;;;;;;19.20;61.90;;;15.17;100.00;95730.44;5001136;28;20003;-48
2023/09/08 04:04:20;;;;;;;;;;;19.20;62.00;;;15.18;100.00;95728.56;4998389;28;26646;-51
2023/09/08 04:06:45;;;;;;;;;;;19.20;62.10;;;15.17;100.00;95735.03;5002369;28;19918;-55
2023/09/08 04:09:11;;;;;;;;;;;19.20;62.10;;;15.15;100.00;95729.13;5004657;28;19960;-52
2023/09/08 04:11:37;;;;;;;;;;;19.10;62.10;;;15.12;100.00;95735.09;5004217;28;20004;-51
2023/09/08 04:14:03;;;;;;;;;;;19.10;62.10;;;15.11;100.00;95738.88;5003471;28;19931;-53
2023/09/08 04:16:29;;;;;;;;;;;19.10;62.20;;;15.09;100.00;95739.13;4997462;28;19909;-48
2023/09/08 04:18:55;;;;;;;;;;;19.10;62.20;;;15.06;100.00;95744.28;5011174;28;19909;-53
2023/09/08 04:21:20;;;;;;;;;;;19.10;62.30;;;15.04;100.00;95737.34;4998326;28;19916;-54
2023/09/08 04:23:46;;;;;;;;;;;19.10;62.30;;;15.02;100.00;95736.03;5010431;28;19913;-53
2023/09/08 04:26:13;;;;;;;;;;;19.10;62.30;;;15.00;100.00;95738.19;4997714;28;20379;-50
2023/09/08 04:28:39;;;;;;;;;;;19.00;62.30;;;14.96;100.00;95732.59;5004326;28;19913;-50
2023/09/08 04:31:05;;;;;;;;;;;19.00;62.40;;;14.97;100.00;95736.88;4998224;28;20429;-52
2023/09/08 04:33:30;;;;;;;;;;;19.00;62.40;;;14.96;100.00;95740.66;5000137;28;19910;-50
2023/09/08 04:35:56;;;;;;;;;;;19.00;62.50;;;14.95;100.00;95743.63;5008951;28;19971;-51
2023/09/08 04:38:22;;;;;;;;;;;19.00;62.60;;;14.93;100.00;95741.22;4999588;28;19909;-50
2023/09/08 04:40:48;;;;;;;;;;;18.90;62.50;;;14.97;100.00;95738.75;5008599;28;19916;-53
2023/09/08 04:43:14;;;;;;;;;;;18.90;62.60;;;15.00;100.00;95743.53;4998472;28;19940;-50
2023/09/08 04:45:39;;;;;;;;;;;18.90;62.70;;;14.98;100.00;95749.22;5004716;28;19910;-52
2023/09/08 04:48:05;;;;;;;;;;;19.00;62.80;;;15.00;100.00;95759.63;5008553;28;20354;-53
2023/09/08 04:50:31;;;;;;;;;;;19.00;62.80;;;14.98;100.00;95757.25;4997983;28;19916;-54
2023/09/08 04:52:57;;;;;;;;;;;18.90;62.80;;;15.01;100.00;95756.69;5008049;28;19913;-52
2023/09/08 04:55:23;;;;;;;;;;;18.90;62.90;;;15.01;100.00;95753.19;4997837;28;19913;-50
2023/09/08 04:57:48;;;;;;;;;;;19.00;62.90;;;15.05;100.00;95759.59;5000121;28;20356;-54
2023/09/08 05:00:15;;;;;;;;;;;19.00;63.00;;;15.07;100.00;95765.44;5005979;28;19917;-55
2023/09/08 05:02:41;;;;;;;;;;;19.00;63.00;;;15.03;100.00;95761.75;5002060;28;19917;-49
2023/09/08 05:05:07;;;;;;;;;;;19.00;63.00;;;14.99;100.00;95763.41;4998646;28;19920;-54
2023/09/08 05:07:33;;;;;;;;;;;19.00;63.00;;;14.98;100.00;95762.63;5002222;28;19917;-54
2023/09/08 05:09:59;;;;;;;;;;;19.00;63.00;;;15.01;100.00;95766.59;4995385;28;19920;-53
2023/09/08 05:12:25;;;;;;;;;;;19.00;63.10;;;15.04;100.00;95761.47;4999767;28;20447;-49
2023/09/08 05:14:56;;;;;;;;;;;19.00;63.20;;;15.09;100.00;95759.81;5004687;28;19913;-51
2023/09/08 05:17:23;;;;;;;;;;;19.10;63.20;;;15.15;100.00;95764.81;4998530;28;19927;-50
2023/09/08 05:19:49;;;;;;;;;;;19.10;63.30;;;15.23;100.00;95766.03;4991175;28;19924;-52
2023/09/08 05:22:15;;;;;;;;;;;19.20;63.40;;;15.27;100.00;95769.75;5002597;28;19916;-49
2023/09/08 05:24:40;;;;;;;;;;;19.20;63.40;;;15.28;100.00;95768.66;5006137;28;19909;-50
2023/09/08 05:27:06;;;;;;;;;;;19.30;63.30;;;15.31;100.00;95770.75;5001835;28;19961;-48
2023/09/08 05:29:32;;;;;;;;;;;19.30;63.30;;;15.34;100.00;95770.19;5002981;28;20394;-50
2023/09/08 05:31:57;;;;;;;;;;;19.40;63.30;;;15.35;100.00;95765.63;4992050;28;19916;-51
2023/09/08 05:34:23;;;;;;;;;;;19.40;63.20;;;15.37;100.00;95766.13;4998446;28;19909;-50
2023/09/08 05:36:49;;;;;;;;;;;19.50;63.30;;;15.41;100.00;95772.50;5006185;28;20015;-51
2023/09/08 05:39:17;;;;;;;;;;;19.50;63.30;;;15.46;100.00;95761.72;4998742;28;20007;-50
2023/09/08 05:41:43;;;;;;;;;;;19.60;63.30;;;15.52;100.00;95773.19;4999461;28;19914;-52
2023/09/08 05:44:08;;;;;;;;;;;19.60;63.30;;;15.62;100.00;95779.19;5007756;28;20323;-52
2023/09/08 05:46:34;;;;;;;;;;;19.70;63.30;;;15.74;100.00;95786.81;4993893;28;19913;-52
2023/09/08 05:49:00;;;;;;;;;;;19.80;63.40;;;15.91;100.00;95781.69;5007642;28;19964;-52
2023/09/08 05:51:26;;;;;;;;;;;20.00;63.50;;;16.10;100.00;95786.25;4993590;28;19917;-49
2023/09/08 05:53:51;;;;;;;;;;;20.20;63.50;;;16.32;100.00;95786.38;5000282;28;19913;-49
2023/09/08 05:56:19;;;;;;;;;;;20.40;63.50;;;16.52;100.00;95787.94;5002293;28;19955;-49
2023/09/08 05:58:45;;;;;;;;;;;20.60;63.40;;;16.76;100.00;95795.03;4993617;28;20372;-50
2023/09/08 06:01:11;;;;;;;;;;;20.90;63.40;;;16.92;100.00;95799.03;5001244;28;19952;-50
2023/09/08 06:03:37;;;;;;;;;;;21.20;63.30;;;17.15;100.00;95791.84;4996891;28;19923;-55
2023/09/08 06:06:03;;;;;;;;;;;21.50;63.20;;;17.41;100.00;95796.69;5009077;28;19916;-54
2023/09/08 06:08:28;;;;;;;;;;;21.80;63.00;;;17.67;100.00;95802.31;4993126;28;19909;-54
2023/09/08 06:10:54;;;;;;;;;;;22.10;62.80;;;17.90;100.00;95803.97;5002890;28;19974;-54
2023/09/08 06:13:20;;;;;;;;;;;22.40;62.60;;;18.16;100.00;95806.03;4995982;28;20307;-54
2023/09/08 06:15:46;;;;;;;;;;;22.80;62.40;;;18.41;100.00;95797.31;4998099;28;19909;-50
2023/09/08 06:18:12;;;;;;;;;;;23.10;62.10;;;18.66;100.00;95798.53;5009611;28;20290;-52
2023/09/08 06:20:45;;;;;;;;;;;23.50;61.90;;;18.90;100.00;95798.22;5013978;28;19966;-50
2023/09/08 06:23:11;;;;;;;;;;;23.90;61.60;;;19.15;100.00;95788.59;5012319;28;19913;-51
2023/09/08 06:25:36;;;;;;;;;;;24.30;61.20;;;19.41;100.00;95793.25;5013633;28;19915;-52
2023/09/08 06:28:02;;;;;;;;;;;24.60;60.80;;;19.68;100.00;95792.22;5012417;28;19969;-49
2023/09/08 06:30:28;;;;;;;;;;;25.00;60.40;;;19.78;100.00;95794.59;5013602;28;19908;-50
2023/09/08 06:32:54;;;;;;;;;;;25.30;59.90;;;20.06;100.00;95797.75;5013365;28;19909;-56
2023/09/08 06:35:20;;;;;;;;;;;25.60;59.60;;;20.38;100.00;95798.34;5012586;28;19909;-52
2023/09/08 06:37:46;;;;;;;;;;;26.00;59.40;;;20.63;100.00;95795.91;5011385;28;19916;-54
2023/09/08 06:40:11;;;;;;;;;;;26.30;59.10;;;20.93;100.00;95796.75;5012462;28;19913;-50
2023/09/08 06:42:37;;;;;;;;;;;26.60;58.80;;;21.15;99.99;95806.50;5013037;28;19917;-51
2023/09/08 06:45:03;;;;;;;;;;;27.00;58.60;;;21.37;100.00;95802.75;5014110;28;19920;-50
2023/09/08 06:47:29;;;;;;;;;;;27.30;58.30;;;21.65;100.00;95808.47;5012431;28;19959;-57
2023/09/08 06:49:55;;;;;;;;;;;27.60;58.00;;;21.88;96.10;95801.63;5011868;28;20322;-57
2023/09/08 06:52:20;;;;;;;;;;;27.90;57.70;;;22.04;94.67;95807.22;5012666;28;20458;-56
2023/09/08 06:54:46;;;;;;;;;;;28.20;58.00;;;22.30;93.27;95808.94;5013199;28;19916;-55
2023/09/08 06:57:21;;;;;;;;;;;28.40;57.10;;;22.60;91.05;95806.88;5013308;28;19909;-53
2023/09/08 06:59:47;;;;;;;;;;;28.70;56.90;;;22.87;89.92;95808.94;5012228;28;19917;-57
2023/09/08 07:02:13;;;;;;;;;;;28.90;56.60;;;23.07;86.19;95806.53;5013290;28;19917;-55
2023/09/08 07:04:39;;;;;;;;;;;29.20;56.40;;;23.33;85.80;95806.94;5011967;28;19913;-55
2023/09/08 07:07:07;;;;;;;;;;;29.40;56.10;;;23.69;84.13;95815.44;5012486;28;20300;-57
2023/09/08 07:09:37;;;;;;;;;;;29.70;55.90;;;24.01;80.50;95808.22;5012276;28;20265;-56
2023/09/08 07:12:04;;;;;;;;;;;29.90;55.70;;;24.27;80.00;95807.78;5012250;28;19921;-54
2023/09/08 07:14:31;;;;;;;;;;;30.10;55.40;;;24.49;78.81;95806.44;4998224;28;19909;-54
2023/09/08 07:16:57;;;;;;;;;;;30.40;55.20;;;24.73;76.52;95810.19;5011991;28;19920;-55
2023/09/08 07:19:23;;;;;;;;;;;30.60;54.90;;;24.92;75.85;95808.34;5012201;28;19920;-56
2023/09/08 07:21:49;;;;;;;;;;;30.90;54.60;;;25.01;74.33;95808.19;5012839;28;20302;-57
2023/09/08 07:24:14;;;;;;;;;;;31.10;54.30;;;25.08;73.73;95808.34;5011186;28;20371;-54
2023/09/08 07:26:40;;;;;;;;;;;31.30;53.90;;;25.30;73.26;95806.16;5012389;28;19909;-53
2023/09/08 07:29:06;;;;;;;;;;;31.60;53.70;;;25.54;72.74;95802.41;5011292;28;19909;-53
2023/09/08 07:31:32;;;;;;;;;;;31.80;53.40;;;25.91;70.65;95802.06;5012504;28;19909;-53
2023/09/08 07:33:57;;;;;;;;;;;32.00;53.10;;;26.14;69.41;95805.69;5011382;28;20019;-54
2023/09/08 07:36:23;;;;;;;;;;;32.20;52.90;;;26.20;68.37;95798.78;5012241;28;19967;-58
2023/09/08 07:38:49;;;;;;;;;;;32.40;52.50;;;26.48;67.43;95797.72;5011302;28;19909;-56
2023/09/08 07:41:15;;;;;;;;;;;32.50;52.30;;;26.79;66.43;95801.44;5011362;28;19924;-57
2023/09/08 07:43:40;;;;;;;;;;;32.80;52.10;;;26.99;65.17;95794.78;5012494;28;19916;-56
2023/09/08 07:46:07;;;;;;;;;;;33.00;51.80;;;27.18;63.96;95804.88;5011105;28;19955;-56
2023/09/08 07:48:33;;;;;;;;;;;33.20;51.50;;;27.40;62.81;95797.78;5011259;28;19916;-55
2023/09/08 07:51:00;;;;;;;;;;;33.40;51.20;;;27.55;62.15;95802.31;5011818;28;19979;-57
2023/09/08 07:53:27;;;;;;;;;;;33.50;51.00;;;27.74;61.71;95801.41;5010884;28;20012;-56
2023/09/08 07:55:53;;;;;;;;;;;33.70;50.60;;;27.96;59.80;95807.97;5011800;28;19915;-58
2023/09/08 07:58:18;;;;;;;;;;;34.00;50.40;;;28.18;59.75;95802.78;5011042;28;19991;-53
2023/09/08 08:00:44;;;;;;;;;;;34.20;50.20;;;28.33;58.58;95807.22;5011705;28;19913;-51
2023/09/08 08:03:10;;;;;;;;;;;34.40;49.80;;;28.34;58.67;95808.81;5011419;28;19944;-54
2023/09/08 08:08:15;;;;;;;;;;;34.80;49.10;;;28.73;58.44;95805.75;5007281;28;20325;-48
2023/09/08 08:10:42;;;;;;;;;;;34.90;48.80;;;28.78;57.29;95803.44;5011230;28;19996;-47
2023/09/08 08:13:08;;;;;;;;;;;35.00;48.60;;;28.65;57.25;95806.84;5012435;28;20356;-47
2023/09/08 08:15:40;;;;;;;;;;;35.20;48.30;;;28.88;56.83;95812.16;5012039;28;19948;-47
2023/09/08 08:18:09;;;;;;;;;;;35.40;48.10;;;29.24;56.72;95819.56;4974144;28;19975;-47
2023/09/08 08:20:35;;;;;;;;;;;35.60;47.80;;;29.39;55.04;95812.22;4992935;28;19909;-46
2023/09/08 08:23:02;;;;;;;;;;;35.70;47.50;;;29.58;54.43;95807.63;4991378;28;20471;-47
2023/09/08 08:25:28;;;;;;;;;;;35.90;47.20;;;29.85;54.11;95802.72;4992468;28;19914;-47
2023/09/08 08:27:56;;;;;;;;;;;36.00;47.00;;;29.65;53.93;95819.50;4992340;28;19916;-51
2023/09/08 08:30:22;;;;;;;;;;;36.20;46.70;;;29.50;54.46;95815.81;4991711;28;19937;-48
2023/09/08 08:32:48;;;;;;;;;;;36.30;46.90;;;29.72;53.51;95814.03;4989551;28;20055;-48
2023/09/08 08:35:14;;;;;;;;;;;36.40;46.20;;;29.80;53.27;95820.34;4992431;28;20387;-51
2023/09/08 08:37:42;;;;;;;;;;;36.60;46.00;;;30.06;52.92;95816.56;4995143;28;19932;-48
2023/09/08 08:40:12;;;;;;;;;;;36.70;45.70;;;30.20;52.86;95816.66;4991637;28;19963;-49
2023/09/08 08:42:39;;;;;;;;;;;36.80;45.50;;;30.45;52.07;95809.69;4992262;28;19924;-49
2023/09/08 08:45:06;;;;;;;;;;;37.00;45.30;;;30.82;51.04;95814.91;4992310;28;20383;-47
2023/09/08 08:47:32;;;;;;;;;;;37.20;45.20;;;31.10;50.19;95814.94;4988053;28;19921;-47
2023/09/08 08:50:00;;;;;;;;;;;37.50;45.00;;;30.90;49.96;95808.25;4992346;28;19992;-47
2023/09/08 08:52:27;;;;;;;;;;;37.60;44.60;;;30.89;49.78;95804.69;4978598;28;20495;-47
2023/09/08 08:54:54;;;;;;;;;;;37.80;44.30;;;31.17;49.28;95799.63;4991945;28;19914;-51
2023/09/08 08:57:22;;;;;;;;;;;37.90;44.00;;;31.44;48.40;95802.78;4978792;28;19909;-48
2023/09/08 08:59:51;;;;;;;;;;;38.10;43.80;;;31.54;47.62;95801.97;4979478;28;20279;-51
2023/09/08 09:02:18;;;;;;;;;;;38.20;43.40;;;31.84;47.35;95800.72;4971836;28;20277;-48
2023/09/08 09:04:46;;;;;;;;;;;38.40;43.10;;;32.16;46.49;95795.16;4990071;28;19960;-47
2023/09/08 09:07:13;;;;;;;;;;;38.50;43.00;;;32.46;45.55;95806.44;4991053;28;19925;-47
2023/09/08 09:09:40;;;;;;;;;;;38.60;42.60;;;32.51;45.63;95805.25;4981492;28;20004;-49
2023/09/08 09:12:06;;;;;;;;;;;38.80;42.50;;;32.34;45.84;95811.59;4984900;28;19909;-48
2023/09/08 09:14:33;;;;;;;;;;;38.90;42.10;;;32.40;45.57;95805.25;4984264;28;19963;-52
2023/09/08 09:17:01;;;;;;;;;;;39.10;42.00;;;32.36;46.87;95798.22;4986527;28;19917;-49
2023/09/08 09:19:31;;;;;;;;;;;39.20;41.70;;;32.72;45.37;95804.34;4992925;28;19909;-48
2023/09/08 09:21:59;;;;;;;;;;;39.40;41.60;;;33.00;43.70;95799.84;4990160;28;19920;-50
2023/09/08 09:24:38;;;;;;;;;;;39.50;41.30;;;33.09;43.56;95797.41;4994590;28;19971;-51
2023/09/08 09:27:08;;;;;;;;;;;39.70;41.00;;;33.16;43.39;95802.91;4981993;28;19909;-49
2023/09/08 09:29:48;;;;;;;;;;;39.90;40.80;;;33.11;43.82;95798.59;4993805;28;19940;-49
2023/09/08 09:32:16;;;;;;;;;;;40.00;40.50;;;33.15;42.62;95796.56;4985751;28;19920;-48
2023/09/08 09:34:53;;;;;;;;;;;40.10;40.10;;;32.53;43.61;95791.88;4978044;28;19917;-48
2023/09/08 09:37:20;;;;;;;;;;;40.10;39.90;;;32.46;43.38;95800.94;4989786;28;20351;-52
2023/09/08 09:39:54;;;;;;;;;;;40.10;39.70;;;32.84;42.79;95795.59;4981574;28;19955;-48
2023/09/08 09:42:23;;;;;;;;;;;40.10;39.60;;;33.22;42.07;95790.25;4993679;28;19921;-50
2023/09/08 09:44:51;;;;;;;;;;;40.20;39.50;;;33.37;42.47;95790.88;4981758;28;19909;-47
2023/09/08 09:47:16;;;;;;;;;;;40.30;39.30;;;33.60;42.29;95799.38;4991316;28;19947;-48
2023/09/08 09:49:47;;;;;;;;;;;40.40;39.20;;;33.80;41.17;95798.78;4988958;28;19945;-47
2023/09/08 09:52:23;;;;;;;;;;;40.60;39.10;;;33.66;41.19;95796.97;4989013;28;19910;-52
2023/09/08 09:54:54;;;;;;;;;;;40.70;38.80;;;34.12;42.01;95792.91;4972181;28;20312;-48
2023/09/08 09:57:22;;;;;;;;;;;40.90;38.60;;;34.35;40.70;95795.03;4975326;28;19909;-52
2023/09/08 09:59:50;;;;;;;;;;;41.00;38.40;;;34.16;40.75;95788.16;4993708;28;20032;-49
2023/09/08 10:02:22;;;;;;;;;;;41.20;38.30;;;33.93;42.40;95788.00;4995106;28;19963;-52
2023/09/08 10:04:51;;;;;;;;;;;41.40;38.10;;;34.29;41.28;95786.41;4965000;28;19924;-49
2023/09/08 10:07:18;;;;;;;;;;;41.50;37.80;;;34.47;41.66;95785.38;4994549;28;19918;-52
2023/09/08 10:09:44;;;;;;;;;;;41.60;37.70;;;34.54;40.81;95779.78;4982252;28;20012;-47
2023/09/08 10:12:15;;;;;;;;;;;41.70;37.50;;;34.63;40.68;95782.81;4993861;28;20080;-50
2023/09/08 10:14:43;;;;;;;;;;;41.90;37.40;;;34.91;40.92;95781.63;4984845;28;19940;-49
2023/09/08 10:17:18;;;;;;;;;;;42.10;37.30;;;34.72;39.51;95769.25;4988477;28;19914;-48
2023/09/08 10:19:51;;;;;;;;;;;42.20;37.00;;;34.89;39.67;95784.00;4967319;28;20078;-47
2023/09/08 10:22:23;;;;;;;;;;;42.30;36.70;;;34.88;39.71;95771.41;4980724;28;19935;-50
2023/09/08 10:24:53;;;;;;;;;;;42.40;36.50;;;34.69;39.11;95774.81;4994204;28;19917;-47
2023/09/08 10:27:23;;;;;;;;;;;42.40;36.30;;;34.71;38.86;95772.44;4964526;28;19914;-51
2023/09/08 10:29:51;;;;;;;;;;;42.40;36.10;;;34.62;39.31;95772.16;4994256;28;19917;-49
2023/09/08 10:32:20;;;;;;;;;;;42.50;36.00;;;35.02;39.03;95766.84;4989411;28;19919;-48
2023/09/08 10:34:47;;;;;;;;;;;42.60;35.90;;;35.36;39.06;95770.25;4992193;28;20505;-49
2023/09/08 10:37:25;;;;;;;;;;;42.60;35.60;;;35.58;37.67;95762.34;4981764;28;20271;-51
2023/09/08 10:39:51;;;;;;;;;;;42.90;35.70;;;35.83;37.01;95752.81;4981509;28;19976;-48
2023/09/08 10:42:17;;;;;;;;;;;43.00;35.50;;;36.02;37.54;95760.34;4985630;28;19925;-48
2023/09/08 10:44:49;;;;;;;;;;;43.30;35.40;;;36.07;36.16;95759.88;4988086;28;19910;-47
2023/09/08 10:47:22;;;;;;;;;;;43.40;35.00;;;36.36;36.66;95757.28;4983494;28;19909;-48
2023/09/08 10:49:50;;;;;;;;;;;43.60;34.80;;;36.38;36.46;95754.06;4991195;28;19920;-49
2023/09/08 10:52:16;;;;;;;;;;;43.70;34.50;;;36.47;37.09;95745.16;4984144;28;19957;-49
2023/09/08 10:54:48;;;;;;;;;;;43.90;34.40;;;36.58;35.96;95746.53;4990766;28;19910;-47
2023/09/08 10:57:17;;;;;;;;;;;44.10;34.30;;;36.84;33.75;95749.50;4985317;28;20071;-50
2023/09/08 11:00:12;;;;;;;;;;;44.10;34.70;;;36.70;34.07;95742.28;4993024;28;19913;-51
2023/09/08 11:02:48;;;;;;;;;;;44.30;34.60;;;36.86;34.15;95747.06;4965139;28;20406;-50
2023/09/08 11:05:15;;;;;;;;;;;44.50;33.80;;;36.90;33.45;95735.88;4990319;28;20000;-47
2023/09/08 11:07:43;;;;;;;;;;;44.70;33.50;;;37.05;33.92;95737.13;4979453;28;20296;-50
2023/09/08 11:10:12;;;;;;;;;;;44.70;33.00;;;36.98;34.55;95737.25;4975435;28;20606;-48
2023/09/08 11:12:38;;;;;;;;;;;45.00;33.00;;;37.14;32.61;95734.53;4986842;28;19939;-48
2023/09/08 11:15:08;;;;;;;;;;;45.00;33.40;;;37.05;32.39;95737.13;4987226;28;20360;-50